sensor_id;sensor_type;location;lat;lon;timestamp;P1;durP1;ratioP1;P2;durP2;ratioP2
58528;SDS011;44322;52.968;5.816;2022-12-07T00:01:09;7.38;;;2.20;;
58528;SDS011;44322;52.968;5.816;2022-12-07T00:03:36;6.15;;;2.25;;
58528;SDS011;44322;52.968;5.816;2022-12-07T00:06:03;9.13;;;2.20;;
58528;SDS011;44322;52.968;5.816;2022-12-07T00:08:30;9.30;;;1.80;;
58528;SDS011;44322;52.968;5.816;2022-12-07T00:11:04;7.10;;;1.48;;
58528;SDS011;44322;52.968;5.816;2022-12-07T00:13:34;6.53;;;1.70;;
58528;SDS011;44322;52.968;5.816;2022-12-07T00:16:01;9.40;;;1.58;;
58528;SDS011;44322;52.968;5.816;2022-12-07T00:18:31;6.32;;;1.48;;
58528;SDS011;44322;52.968;5.816;2022-12-07T00:21:05;7.78;;;1.63;;
58528;SDS011;44322;52.968;5.816;2022-12-07T00:23:32;8.43;;;1.45;;
58528;SDS011;44322;52.968;5.816;2022-12-07T00:26:06;8.27;;;1.48;;
58528;SDS011;44322;52.968;5.816;2022-12-07T00:28:33;4.25;;;1.10;;
58528;SDS011;44322;52.968;5.816;2022-12-07T00:31:03;8.57;;;1.88;;
58528;SDS011;44322;52.968;5.816;2022-12-07T00:33:30;7.97;;;1.55;;
58528;SDS011;44322;52.968;5.816;2022-12-07T00:35:56;9.05;;;1.60;;
58528;SDS011;44322;52.968;5.816;2022-12-07T00:38:22;9.52;;;1.73;;
58528;SDS011;44322;52.968;5.816;2022-12-07T00:40:58;7.07;;;2.00;;
58528;SDS011;44322;52.968;5.816;2022-12-07T00:43:24;8.35;;;1.50;;
58528;SDS011;44322;52.968;5.816;2022-12-07T00:45:50;7.35;;;1.90;;
58528;SDS011;44322;52.968;5.816;2022-12-07T00:48:16;5.70;;;1.33;;
58528;SDS011;44322;52.968;5.816;2022-12-07T00:50:42;7.55;;;1.73;;
58528;SDS011;44322;52.968;5.816;2022-12-07T00:53:07;11.15;;;2.20;;
58528;SDS011;44322;52.968;5.816;2022-12-07T00:55:33;8.02;;;2.33;;
58528;SDS011;44322;52.968;5.816;2022-12-07T00:57:59;11.13;;;1.80;;
58528;SDS011;44322;52.968;5.816;2022-12-07T01:00:25;7.35;;;1.40;;
58528;SDS011;44322;52.968;5.816;2022-12-07T01:02:50;8.73;;;1.50;;
58528;SDS011;44322;52.968;5.816;2022-12-07T01:05:16;8.32;;;1.55;;
58528;SDS011;44322;52.968;5.816;2022-12-07T01:07:41;6.53;;;1.67;;
58528;SDS011;44322;52.968;5.816;2022-12-07T01:10:07;7.25;;;1.50;;
58528;SDS011;44322;52.968;5.816;2022-12-07T01:12:33;10.40;;;1.60;;
58528;SDS011;44322;52.968;5.816;2022-12-07T01:14:59;8.25;;;1.30;;
58528;SDS011;44322;52.968;5.816;2022-12-07T01:17:24;8.93;;;1.70;;
58528;SDS011;44322;52.968;5.816;2022-12-07T01:19:50;8.27;;;1.90;;
58528;SDS011;44322;52.968;5.816;2022-12-07T01:22:15;6.78;;;1.50;;
58528;SDS011;44322;52.968;5.816;2022-12-07T01:24:41;6.20;;;1.38;;
58528;SDS011;44322;52.968;5.816;2022-12-07T01:27:06;7.10;;;0.93;;
58528;SDS011;44322;52.968;5.816;2022-12-07T01:29:32;8.88;;;1.63;;
58528;SDS011;44322;52.968;5.816;2022-12-07T01:31:58;3.95;;;0.98;;
58528;SDS011;44322;52.968;5.816;2022-12-07T01:34:23;5.72;;;1.20;;
58528;SDS011;44322;52.968;5.816;2022-12-07T01:36:49;5.28;;;1.10;;
58528;SDS011;44322;52.968;5.816;2022-12-07T01:39:14;6.97;;;1.20;;
58528;SDS011;44322;52.968;5.816;2022-12-07T01:41:40;6.70;;;1.20;;
58528;SDS011;44322;52.968;5.816;2022-12-07T01:46:37;8.02;;;1.08;;
58528;SDS011;44322;52.968;5.816;2022-12-07T01:49:07;4.35;;;1.10;;
58528;SDS011;44322;52.968;5.816;2022-12-07T01:51:35;8.77;;;1.20;;
58528;SDS011;44322;52.968;5.816;2022-12-07T01:56:29;6.53;;;1.10;;
58528;SDS011;44322;52.968;5.816;2022-12-07T01:58:56;4.47;;;1.10;;
58528;SDS011;44322;52.968;5.816;2022-12-07T02:01:23;6.07;;;1.02;;
58528;SDS011;44322;52.968;5.816;2022-12-07T02:03:48;9.63;;;1.60;;
58528;SDS011;44322;52.968;5.816;2022-12-07T02:06:16;7.53;;;1.40;;
58528;SDS011;44322;52.968;5.816;2022-12-07T02:08:43;5.68;;;1.38;;
58528;SDS011;44322;52.968;5.816;2022-12-07T02:11:09;7.03;;;1.60;;
58528;SDS011;44322;52.968;5.816;2022-12-07T02:13:35;10.68;;;2.00;;
58528;SDS011;44322;52.968;5.816;2022-12-07T02:16:10;9.20;;;2.00;;
58528;SDS011;44322;52.968;5.816;2022-12-07T02:21:48;8.45;;;1.35;;
58528;SDS011;44322;52.968;5.816;2022-12-07T02:27:36;4.60;;;0.95;;
58528;SDS011;44322;52.968;5.816;2022-12-07T02:30:14;5.80;;;1.13;;
58528;SDS011;44322;52.968;5.816;2022-12-07T02:32:43;6.18;;;1.33;;
58528;SDS011;44322;52.968;5.816;2022-12-07T02:35:16;10.38;;;1.20;;
58528;SDS011;44322;52.968;5.816;2022-12-07T02:40:31;5.07;;;0.77;;
58528;SDS011;44322;52.968;5.816;2022-12-07T02:43:04;7.03;;;1.63;;
58528;SDS011;44322;52.968;5.816;2022-12-07T02:45:34;7.03;;;1.38;;
58528;SDS011;44322;52.968;5.816;2022-12-07T02:48:02;5.45;;;0.90;;
58528;SDS011;44322;52.968;5.816;2022-12-07T02:50:29;3.95;;;0.75;;
58528;SDS011;44322;52.968;5.816;2022-12-07T02:52:54;8.48;;;1.30;;
58528;SDS011;44322;52.968;5.816;2022-12-07T02:55:23;8.25;;;1.20;;
58528;SDS011;44322;52.968;5.816;2022-12-07T03:00:37;8.90;;;1.40;;
58528;SDS011;44322;52.968;5.816;2022-12-07T03:03:16;4.45;;;0.90;;
58528;SDS011;44322;52.968;5.816;2022-12-07T03:11:24;6.68;;;1.13;;
58528;SDS011;44322;52.968;5.816;2022-12-07T03:14:13;6.15;;;1.17;;
58528;SDS011;44322;52.968;5.816;2022-12-07T03:16:50;11.32;;;1.30;;
58528;SDS011;44322;52.968;5.816;2022-12-07T03:19:21;8.65;;;1.10;;
58528;SDS011;44322;52.968;5.816;2022-12-07T03:21:57;6.95;;;1.20;;
58528;SDS011;44322;52.968;5.816;2022-12-07T03:24:39;14.10;;;1.30;;
58528;SDS011;44322;52.968;5.816;2022-12-07T03:27:18;8.48;;;1.30;;
58528;SDS011;44322;52.968;5.816;2022-12-07T03:29:47;9.82;;;1.73;;
58528;SDS011;44322;52.968;5.816;2022-12-07T03:34:49;6.35;;;1.30;;
58528;SDS011;44322;52.968;5.816;2022-12-07T03:37:31;8.48;;;1.13;;
58528;SDS011;44322;52.968;5.816;2022-12-07T03:43:04;6.53;;;1.10;;
58528;SDS011;44322;52.968;5.816;2022-12-07T03:45:37;6.43;;;1.40;;
58528;SDS011;44322;52.968;5.816;2022-12-07T03:48:07;6.20;;;1.30;;
58528;SDS011;44322;52.968;5.816;2022-12-07T03:50:41;4.32;;;1.23;;
58528;SDS011;44322;52.968;5.816;2022-12-07T03:55:41;7.22;;;1.45;;
58528;SDS011;44322;52.968;5.816;2022-12-07T03:58:12;5.97;;;1.30;;
58528;SDS011;44322;52.968;5.816;2022-12-07T04:00:41;12.18;;;1.10;;
58528;SDS011;44322;52.968;5.816;2022-12-07T04:03:08;4.90;;;1.00;;
58528;SDS011;44322;52.968;5.816;2022-12-07T04:05:33;6.57;;;1.13;;
58528;SDS011;44322;52.968;5.816;2022-12-07T04:07:59;7.72;;;1.00;;
58528;SDS011;44322;52.968;5.816;2022-12-07T04:10:25;3.15;;;0.80;;
58528;SDS011;44322;52.968;5.816;2022-12-07T04:12:50;7.22;;;1.33;;
58528;SDS011;44322;52.968;5.816;2022-12-07T04:15:16;8.45;;;1.25;;
58528;SDS011;44322;52.968;5.816;2022-12-07T04:17:42;4.72;;;0.68;;
58528;SDS011;44322;52.968;5.816;2022-12-07T04:20:07;7.82;;;1.02;;
58528;SDS011;44322;52.968;5.816;2022-12-07T04:22:33;5.40;;;1.02;;
58528;SDS011;44322;52.968;5.816;2022-12-07T04:24:59;4.05;;;0.80;;
58528;SDS011;44322;52.968;5.816;2022-12-07T04:27:24;7.70;;;1.05;;
58528;SDS011;44322;52.968;5.816;2022-12-07T04:29:50;6.38;;;1.60;;
58528;SDS011;44322;52.968;5.816;2022-12-07T04:32:16;7.15;;;1.05;;
58528;SDS011;44322;52.968;5.816;2022-12-07T04:34:41;5.70;;;1.60;;
58528;SDS011;44322;52.968;5.816;2022-12-07T04:37:07;5.00;;;1.27;;
58528;SDS011;44322;52.968;5.816;2022-12-07T04:39:32;8.32;;;1.30;;
58528;SDS011;44322;52.968;5.816;2022-12-07T04:41:58;6.30;;;1.23;;
58528;SDS011;44322;52.968;5.816;2022-12-07T04:44:25;5.38;;;0.90;;
58528;SDS011;44322;52.968;5.816;2022-12-07T04:46:51;6.15;;;1.42;;
58528;SDS011;44322;52.968;5.816;2022-12-07T04:49:17;6.65;;;1.17;;
58528;SDS011;44322;52.968;5.816;2022-12-07T04:51:44;6.70;;;1.20;;
58528;SDS011;44322;52.968;5.816;2022-12-07T04:54:10;7.45;;;1.15;;
58528;SDS011;44322;52.968;5.816;2022-12-07T04:56:36;6.72;;;1.40;;
58528;SDS011;44322;52.968;5.816;2022-12-07T04:59:02;7.03;;;1.30;;
58528;SDS011;44322;52.968;5.816;2022-12-07T05:01:28;6.05;;;1.27;;
58528;SDS011;44322;52.968;5.816;2022-12-07T05:03:54;4.50;;;1.00;;
58528;SDS011;44322;52.968;5.816;2022-12-07T05:06:19;5.80;;;1.20;;
58528;SDS011;44322;52.968;5.816;2022-12-07T05:08:45;6.85;;;1.55;;
58528;SDS011;44322;52.968;5.816;2022-12-07T05:11:10;8.30;;;1.60;;
58528;SDS011;44322;52.968;5.816;2022-12-07T05:13:59;5.88;;;1.30;;
58528;SDS011;44322;52.968;5.816;2022-12-07T05:16:25;6.80;;;1.55;;
58528;SDS011;44322;52.968;5.816;2022-12-07T05:18:51;8.70;;;1.30;;
58528;SDS011;44322;52.968;5.816;2022-12-07T05:21:17;7.70;;;1.38;;
58528;SDS011;44322;52.968;5.816;2022-12-07T05:23:42;10.27;;;1.30;;
58528;SDS011;44322;52.968;5.816;2022-12-07T05:26:08;4.60;;;1.38;;
58528;SDS011;44322;52.968;5.816;2022-12-07T05:28:33;7.05;;;0.93;;
58528;SDS011;44322;52.968;5.816;2022-12-07T05:30:59;10.38;;;1.27;;
58528;SDS011;44322;52.968;5.816;2022-12-07T05:33:24;3.80;;;0.80;;
58528;SDS011;44322;52.968;5.816;2022-12-07T05:35:50;6.65;;;0.90;;
58528;SDS011;44322;52.968;5.816;2022-12-07T05:38:15;1.08;;;0.40;;
58528;SDS011;44322;52.968;5.816;2022-12-07T05:40:41;2.47;;;0.60;;
58528;SDS011;44322;52.968;5.816;2022-12-07T05:43:07;2.95;;;0.50;;
58528;SDS011;44322;52.968;5.816;2022-12-07T05:45:32;2.33;;;0.52;;
58528;SDS011;44322;52.968;5.816;2022-12-07T05:47:58;3.85;;;0.63;;
58528;SDS011;44322;52.968;5.816;2022-12-07T05:50:24;5.18;;;0.57;;
58528;SDS011;44322;52.968;5.816;2022-12-07T05:52:59;2.17;;;0.68;;
58528;SDS011;44322;52.968;5.816;2022-12-07T05:55:25;6.88;;;1.00;;
58528;SDS011;44322;52.968;5.816;2022-12-07T05:57:50;4.43;;;1.00;;
58528;SDS011;44322;52.968;5.816;2022-12-07T06:00:34;4.45;;;1.30;;
58528;SDS011;44322;52.968;5.816;2022-12-07T06:03:00;5.35;;;0.88;;
58528;SDS011;44322;52.968;5.816;2022-12-07T06:05:25;3.13;;;0.70;;
58528;SDS011;44322;52.968;5.816;2022-12-07T06:07:51;5.50;;;1.00;;
58528;SDS011;44322;52.968;5.816;2022-12-07T06:10:16;5.78;;;1.55;;
58528;SDS011;44322;52.968;5.816;2022-12-07T06:12:42;5.72;;;1.48;;
58528;SDS011;44322;52.968;5.816;2022-12-07T06:15:08;6.15;;;1.88;;
58528;SDS011;44322;52.968;5.816;2022-12-07T06:17:35;5.63;;;1.92;;
58528;SDS011;44322;52.968;5.816;2022-12-07T06:20:02;4.65;;;1.60;;
58528;SDS011;44322;52.968;5.816;2022-12-07T06:22:28;4.80;;;1.48;;
58528;SDS011;44322;52.968;5.816;2022-12-07T06:24:54;7.60;;;1.65;;
58528;SDS011;44322;52.968;5.816;2022-12-07T06:27:20;5.63;;;1.35;;
58528;SDS011;44322;52.968;5.816;2022-12-07T06:29:45;7.80;;;1.20;;
58528;SDS011;44322;52.968;5.816;2022-12-07T06:32:11;3.17;;;1.23;;
58528;SDS011;44322;52.968;5.816;2022-12-07T06:34:37;6.68;;;1.35;;
58528;SDS011;44322;52.968;5.816;2022-12-07T06:37:02;8.27;;;1.55;;
58528;SDS011;44322;52.968;5.816;2022-12-07T06:39:28;5.63;;;1.10;;
58528;SDS011;44322;52.968;5.816;2022-12-07T06:41:54;5.97;;;1.13;;
58528;SDS011;44322;52.968;5.816;2022-12-07T06:44:20;7.88;;;1.73;;
58528;SDS011;44322;52.968;5.816;2022-12-07T06:46:47;4.90;;;1.77;;
58528;SDS011;44322;52.968;5.816;2022-12-07T06:49:13;7.78;;;2.20;;
58528;SDS011;44322;52.968;5.816;2022-12-07T06:51:39;6.18;;;1.92;;
58528;SDS011;44322;52.968;5.816;2022-12-07T06:54:07;5.70;;;1.83;;
58528;SDS011;44322;52.968;5.816;2022-12-07T06:56:33;5.68;;;1.63;;
58528;SDS011;44322;52.968;5.816;2022-12-07T06:58:59;4.68;;;1.00;;
58528;SDS011;44322;52.968;5.816;2022-12-07T07:01:24;7.80;;;1.45;;
58528;SDS011;44322;52.968;5.816;2022-12-07T07:03:50;7.05;;;1.65;;
58528;SDS011;44322;52.968;5.816;2022-12-07T07:06:15;5.90;;;1.60;;
58528;SDS011;44322;52.968;5.816;2022-12-07T07:08:41;7.35;;;1.92;;
58528;SDS011;44322;52.968;5.816;2022-12-07T07:11:07;6.10;;;1.52;;
58528;SDS011;44322;52.968;5.816;2022-12-07T07:13:33;11.60;;;1.65;;
58528;SDS011;44322;52.968;5.816;2022-12-07T07:15:59;6.00;;;1.92;;
58528;SDS011;44322;52.968;5.816;2022-12-07T07:18:24;8.18;;;2.10;;
58528;SDS011;44322;52.968;5.816;2022-12-07T07:20:50;11.18;;;2.42;;
58528;SDS011;44322;52.968;5.816;2022-12-07T07:23:17;6.15;;;2.20;;
58528;SDS011;44322;52.968;5.816;2022-12-07T07:25:43;10.27;;;2.30;;
58528;SDS011;44322;52.968;5.816;2022-12-07T07:28:09;7.80;;;1.58;;
58528;SDS011;44322;52.968;5.816;2022-12-07T07:30:35;8.25;;;1.52;;
58528;SDS011;44322;52.968;5.816;2022-12-07T07:33:01;6.03;;;1.50;;
58528;SDS011;44322;52.968;5.816;2022-12-07T07:35:28;5.20;;;1.30;;
58528;SDS011;44322;52.968;5.816;2022-12-07T07:37:54;11.82;;;1.77;;
58528;SDS011;44322;52.968;5.816;2022-12-07T07:40:20;3.45;;;1.52;;
58528;SDS011;44322;52.968;5.816;2022-12-07T07:42:49;6.13;;;1.20;;
58528;SDS011;44322;52.968;5.816;2022-12-07T07:45:15;3.90;;;1.15;;
58528;SDS011;44322;52.968;5.816;2022-12-07T07:47:41;5.53;;;1.40;;
58528;SDS011;44322;52.968;5.816;2022-12-07T07:50:07;7.60;;;1.67;;
58528;SDS011;44322;52.968;5.816;2022-12-07T07:52:33;8.70;;;1.92;;
58528;SDS011;44322;52.968;5.816;2022-12-07T07:54:58;5.45;;;1.52;;
58528;SDS011;44322;52.968;5.816;2022-12-07T07:57:24;6.90;;;2.10;;
58528;SDS011;44322;52.968;5.816;2022-12-07T07:59:55;7.68;;;1.85;;
58528;SDS011;44322;52.968;5.816;2022-12-07T08:02:21;6.63;;;1.80;;
58528;SDS011;44322;52.968;5.816;2022-12-07T08:04:47;7.88;;;1.75;;
58528;SDS011;44322;52.968;5.816;2022-12-07T08:07:13;7.47;;;1.40;;
58528;SDS011;44322;52.968;5.816;2022-12-07T08:09:39;4.35;;;1.20;;
58528;SDS011;44322;52.968;5.816;2022-12-07T08:12:05;6.38;;;1.65;;
58528;SDS011;44322;52.968;5.816;2022-12-07T08:14:31;7.93;;;1.80;;
58528;SDS011;44322;52.968;5.816;2022-12-07T08:16:57;8.38;;;1.90;;
58528;SDS011;44322;52.968;5.816;2022-12-07T08:19:23;6.30;;;1.85;;
58528;SDS011;44322;52.968;5.816;2022-12-07T08:21:49;6.18;;;1.95;;
58528;SDS011;44322;52.968;5.816;2022-12-07T08:24:14;4.70;;;1.63;;
58528;SDS011;44322;52.968;5.816;2022-12-07T08:26:40;5.22;;;1.70;;
58528;SDS011;44322;52.968;5.816;2022-12-07T08:29:06;8.93;;;2.03;;
58528;SDS011;44322;52.968;5.816;2022-12-07T08:31:32;5.70;;;2.03;;
58528;SDS011;44322;52.968;5.816;2022-12-07T08:33:57;9.02;;;1.88;;
58528;SDS011;44322;52.968;5.816;2022-12-07T08:36:23;7.20;;;2.03;;
58528;SDS011;44322;52.968;5.816;2022-12-07T08:38:49;7.95;;;2.00;;
58528;SDS011;44322;52.968;5.816;2022-12-07T08:41:15;7.07;;;2.00;;
58528;SDS011;44322;52.968;5.816;2022-12-07T08:43:40;5.88;;;1.65;;
58528;SDS011;44322;52.968;5.816;2022-12-07T08:48:44;8.73;;;1.70;;
58528;SDS011;44322;52.968;5.816;2022-12-07T08:51:13;6.95;;;1.60;;
58528;SDS011;44322;52.968;5.816;2022-12-07T08:53:39;5.88;;;1.30;;
58528;SDS011;44322;52.968;5.816;2022-12-07T08:56:05;8.75;;;1.70;;
58528;SDS011;44322;52.968;5.816;2022-12-07T08:58:32;3.20;;;1.02;;
58528;SDS011;44322;52.968;5.816;2022-12-07T09:00:58;5.22;;;1.52;;
58528;SDS011;44322;52.968;5.816;2022-12-07T09:03:24;3.83;;;1.05;;
58528;SDS011;44322;52.968;5.816;2022-12-07T09:05:49;6.70;;;1.08;;
58528;SDS011;44322;52.968;5.816;2022-12-07T09:08:15;6.80;;;1.08;;
58528;SDS011;44322;52.968;5.816;2022-12-07T09:10:41;7.60;;;1.23;;
58528;SDS011;44322;52.968;5.816;2022-12-07T09:13:06;3.63;;;1.17;;
58528;SDS011;44322;52.968;5.816;2022-12-07T09:15:32;5.25;;;1.50;;
58528;SDS011;44322;52.968;5.816;2022-12-07T09:17:58;9.70;;;1.90;;
58528;SDS011;44322;52.968;5.816;2022-12-07T09:20:23;5.55;;;1.83;;
58528;SDS011;44322;52.968;5.816;2022-12-07T09:22:49;6.40;;;2.10;;
58528;SDS011;44322;52.968;5.816;2022-12-07T09:25:15;6.68;;;2.25;;
58528;SDS011;44322;52.968;5.816;2022-12-07T09:27:41;5.82;;;1.80;;
58528;SDS011;44322;52.968;5.816;2022-12-07T09:30:07;11.38;;;1.92;;
58528;SDS011;44322;52.968;5.816;2022-12-07T09:32:33;7.05;;;1.52;;
58528;SDS011;44322;52.968;5.816;2022-12-07T09:34:58;6.07;;;1.38;;
58528;SDS011;44322;52.968;5.816;2022-12-07T09:37:24;7.47;;;1.60;;
58528;SDS011;44322;52.968;5.816;2022-12-07T09:39:49;6.43;;;2.00;;
58528;SDS011;44322;52.968;5.816;2022-12-07T09:42:23;7.20;;;1.98;;
58528;SDS011;44322;52.968;5.816;2022-12-07T09:45:13;6.05;;;1.88;;
58528;SDS011;44322;52.968;5.816;2022-12-07T09:47:41;11.55;;;1.92;;
58528;SDS011;44322;52.968;5.816;2022-12-07T09:50:16;7.03;;;1.55;;
58528;SDS011;44322;52.968;5.816;2022-12-07T09:52:44;6.47;;;1.80;;
58528;SDS011;44322;52.968;5.816;2022-12-07T09:55:16;8.00;;;1.80;;
58528;SDS011;44322;52.968;5.816;2022-12-07T09:57:45;6.75;;;1.60;;
58528;SDS011;44322;52.968;5.816;2022-12-07T10:00:18;6.45;;;2.05;;
58528;SDS011;44322;52.968;5.816;2022-12-07T10:02:52;7.63;;;2.33;;
58528;SDS011;44322;52.968;5.816;2022-12-07T10:05:27;10.15;;;1.83;;
58528;SDS011;44322;52.968;5.816;2022-12-07T10:07:55;6.53;;;1.67;;
58528;SDS011;44322;52.968;5.816;2022-12-07T10:10:25;7.72;;;1.83;;
58528;SDS011;44322;52.968;5.816;2022-12-07T10:13:02;8.18;;;1.50;;
58528;SDS011;44322;52.968;5.816;2022-12-07T10:21:04;6.03;;;2.55;;
58528;SDS011;44322;52.968;5.816;2022-12-07T10:23:30;7.72;;;2.08;;
58528;SDS011;44322;52.968;5.816;2022-12-07T10:25:56;7.22;;;1.92;;
58528;SDS011;44322;52.968;5.816;2022-12-07T10:28:21;7.25;;;2.00;;
58528;SDS011;44322;52.968;5.816;2022-12-07T10:30:48;6.45;;;1.85;;
58528;SDS011;44322;52.968;5.816;2022-12-07T10:33:28;10.23;;;1.77;;
58528;SDS011;44322;52.968;5.816;2022-12-07T10:35:55;9.48;;;1.60;;
58528;SDS011;44322;52.968;5.816;2022-12-07T10:38:20;10.25;;;1.88;;
58528;SDS011;44322;52.968;5.816;2022-12-07T10:40:46;10.90;;;1.50;;
58528;SDS011;44322;52.968;5.816;2022-12-07T10:51:10;8.48;;;2.20;;
58528;SDS011;44322;52.968;5.816;2022-12-07T11:06:24;6.65;;;1.50;;
58528;SDS011;44322;52.968;5.816;2022-12-07T11:09:24;7.88;;;1.55;;
58528;SDS011;44322;52.968;5.816;2022-12-07T11:12:06;6.65;;;1.58;;
58528;SDS011;44322;52.968;5.816;2022-12-07T11:14:40;8.90;;;1.80;;
58528;SDS011;44322;52.968;5.816;2022-12-07T11:17:23;7.90;;;1.77;;
58528;SDS011;44322;52.968;5.816;2022-12-07T11:40:54;6.72;;;1.48;;
58528;SDS011;44322;52.968;5.816;2022-12-07T11:52:43;3.90;;;1.10;;
58528;SDS011;44322;52.968;5.816;2022-12-07T11:55:32;8.73;;;1.63;;
58528;SDS011;44322;52.968;5.816;2022-12-07T11:58:34;3.95;;;1.38;;
58528;SDS011;44322;52.968;5.816;2022-12-07T12:01:24;12.48;;;2.13;;
58528;SDS011;44322;52.968;5.816;2022-12-07T12:06:37;4.03;;;1.50;;
58528;SDS011;44322;52.968;5.816;2022-12-07T12:20:48;7.82;;;1.65;;
58528;SDS011;44322;52.968;5.816;2022-12-07T12:26:18;5.28;;;1.00;;
58528;SDS011;44322;52.968;5.816;2022-12-07T12:33:47;9.20;;;1.60;;
58528;SDS011;44322;52.968;5.816;2022-12-07T13:12:46;9.02;;;1.25;;
58528;SDS011;44322;52.968;5.816;2022-12-07T13:15:50;3.50;;;0.80;;
58528;SDS011;44322;52.968;5.816;2022-12-07T13:18:52;4.93;;;1.00;;
58528;SDS011;44322;52.968;5.816;2022-12-07T13:23:57;3.13;;;0.98;;
58528;SDS011;44322;52.968;5.816;2022-12-07T13:31:51;4.65;;;1.10;;
58528;SDS011;44322;52.968;5.816;2022-12-07T13:36:54;5.55;;;1.00;;
58528;SDS011;44322;52.968;5.816;2022-12-07T13:39:22;2.72;;;0.73;;
58528;SDS011;44322;52.968;5.816;2022-12-07T13:41:58;4.88;;;0.70;;
58528;SDS011;44322;52.968;5.816;2022-12-07T13:44:28;5.43;;;0.90;;
58528;SDS011;44322;52.968;5.816;2022-12-07T13:47:01;5.20;;;1.05;;
58528;SDS011;44322;52.968;5.816;2022-12-07T13:49:38;5.15;;;1.10;;
58528;SDS011;44322;52.968;5.816;2022-12-07T13:53:19;7.00;;;1.30;;
58528;SDS011;44322;52.968;5.816;2022-12-07T13:56:24;4.07;;;0.85;;
58528;SDS011;44322;52.968;5.816;2022-12-07T13:58:57;2.63;;;0.80;;
58528;SDS011;44322;52.968;5.816;2022-12-07T14:10:28;10.32;;;3.50;;
58528;SDS011;44322;52.968;5.816;2022-12-07T14:13:32;7.97;;;3.63;;
58528;SDS011;44322;52.968;5.816;2022-12-07T14:16:22;4.30;;;1.83;;
58528;SDS011;44322;52.968;5.816;2022-12-07T14:18:49;4.35;;;0.80;;
58528;SDS011;44322;52.968;5.816;2022-12-07T14:21:22;3.08;;;0.70;;
58528;SDS011;44322;52.968;5.816;2022-12-07T14:24:08;4.95;;;1.45;;
58528;SDS011;44322;52.968;5.816;2022-12-07T14:26:45;3.42;;;0.90;;
58528;SDS011;44322;52.968;5.816;2022-12-07T14:29:45;9.23;;;4.30;;
58528;SDS011;44322;52.968;5.816;2022-12-07T14:32:15;3.53;;;1.70;;
58528;SDS011;44322;52.968;5.816;2022-12-07T14:34:57;2.72;;;0.90;;
58528;SDS011;44322;52.968;5.816;2022-12-07T14:37:27;5.32;;;0.80;;
58528;SDS011;44322;52.968;5.816;2022-12-07T14:42:31;3.50;;;1.25;;
58528;SDS011;44322;52.968;5.816;2022-12-07T14:45:00;8.27;;;5.43;;
58528;SDS011;44322;52.968;5.816;2022-12-07T14:47:27;10.82;;;7.60;;
58528;SDS011;44322;52.968;5.816;2022-12-07T14:50:02;13.77;;;7.93;;
58528;SDS011;44322;52.968;5.816;2022-12-07T14:52:33;12.30;;;6.90;;
58528;SDS011;44322;52.968;5.816;2022-12-07T14:54:59;9.20;;;4.78;;
58528;SDS011;44322;52.968;5.816;2022-12-07T14:57:25;7.65;;;4.20;;
58528;SDS011;44322;52.968;5.816;2022-12-07T15:00:08;9.43;;;4.75;;
58528;SDS011;44322;52.968;5.816;2022-12-07T15:02:34;8.98;;;4.63;;
58528;SDS011;44322;52.968;5.816;2022-12-07T15:05:00;6.47;;;3.92;;
58528;SDS011;44322;52.968;5.816;2022-12-07T15:07:29;6.57;;;4.05;;
58528;SDS011;44322;52.968;5.816;2022-12-07T15:09:54;7.68;;;4.25;;
58528;SDS011;44322;52.968;5.816;2022-12-07T15:12:20;6.85;;;3.65;;
58528;SDS011;44322;52.968;5.816;2022-12-07T15:14:45;5.85;;;2.90;;
58528;SDS011;44322;52.968;5.816;2022-12-07T15:17:12;5.68;;;3.10;;
58528;SDS011;44322;52.968;5.816;2022-12-07T15:22:36;3.30;;;2.30;;
58528;SDS011;44322;52.968;5.816;2022-12-07T15:25:02;4.60;;;2.10;;
58528;SDS011;44322;52.968;5.816;2022-12-07T15:27:31;5.10;;;2.75;;
58528;SDS011;44322;52.968;5.816;2022-12-07T15:29:58;6.10;;;2.83;;
58528;SDS011;44322;52.968;5.816;2022-12-07T15:32:30;7.32;;;3.05;;
58528;SDS011;44322;52.968;5.816;2022-12-07T15:34:56;7.85;;;3.90;;
58528;SDS011;44322;52.968;5.816;2022-12-07T15:37:22;4.47;;;2.70;;
58528;SDS011;44322;52.968;5.816;2022-12-07T15:39:53;5.30;;;2.53;;
58528;SDS011;44322;52.968;5.816;2022-12-07T15:42:23;6.65;;;2.75;;
58528;SDS011;44322;52.968;5.816;2022-12-07T15:57:07;9.85;;;3.90;;
58528;SDS011;44322;52.968;5.816;2022-12-07T15:59:33;9.77;;;3.85;;
58528;SDS011;44322;52.968;5.816;2022-12-07T16:01:58;9.52;;;2.75;;
58528;SDS011;44322;52.968;5.816;2022-12-07T16:04:24;11.95;;;5.03;;
58528;SDS011;44322;52.968;5.816;2022-12-07T16:06:52;8.05;;;3.72;;
58528;SDS011;44322;52.968;5.816;2022-12-07T16:09:18;8.35;;;4.05;;
58528;SDS011;44322;52.968;5.816;2022-12-07T16:11:43;11.10;;;6.35;;
58528;SDS011;44322;52.968;5.816;2022-12-07T16:14:09;10.18;;;5.10;;
58528;SDS011;44322;52.968;5.816;2022-12-07T16:16:35;5.78;;;3.38;;
58528;SDS011;44322;52.968;5.816;2022-12-07T16:19:00;7.35;;;2.38;;
58528;SDS011;44322;52.968;5.816;2022-12-07T16:21:26;7.50;;;2.50;;
58528;SDS011;44322;52.968;5.816;2022-12-07T16:23:52;5.03;;;2.97;;
58528;SDS011;44322;52.968;5.816;2022-12-07T16:26:18;12.30;;;6.35;;
58528;SDS011;44322;52.968;5.816;2022-12-07T16:28:47;17.23;;;9.15;;
58528;SDS011;44322;52.968;5.816;2022-12-07T16:31:15;16.25;;;8.82;;
58528;SDS011;44322;52.968;5.816;2022-12-07T16:33:42;12.85;;;7.60;;
58528;SDS011;44322;52.968;5.816;2022-12-07T16:36:09;14.73;;;8.73;;
58528;SDS011;44322;52.968;5.816;2022-12-07T16:38:36;20.52;;;12.88;;
58528;SDS011;44322;52.968;5.816;2022-12-07T16:41:02;19.30;;;12.45;;
58528;SDS011;44322;52.968;5.816;2022-12-07T16:43:28;5.30;;;4.10;;
58528;SDS011;44322;52.968;5.816;2022-12-07T16:45:53;5.75;;;2.55;;
58528;SDS011;44322;52.968;5.816;2022-12-07T16:48:19;4.10;;;2.15;;
58528;SDS011;44322;52.968;5.816;2022-12-07T16:50:44;7.18;;;1.58;;
58528;SDS011;44322;52.968;5.816;2022-12-07T16:53:10;4.65;;;1.40;;
58528;SDS011;44322;52.968;5.816;2022-12-07T16:55:43;2.78;;;1.40;;
58528;SDS011;44322;52.968;5.816;2022-12-07T16:58:10;6.03;;;0.85;;
58528;SDS011;44322;52.968;5.816;2022-12-07T17:00:36;7.65;;;1.98;;
58528;SDS011;44322;52.968;5.816;2022-12-07T17:03:03;9.77;;;1.85;;
58528;SDS011;44322;52.968;5.816;2022-12-07T17:05:28;4.80;;;1.23;;
58528;SDS011;44322;52.968;5.816;2022-12-07T17:07:54;5.78;;;1.33;;
58528;SDS011;44322;52.968;5.816;2022-12-07T17:10:21;3.58;;;1.27;;
58528;SDS011;44322;52.968;5.816;2022-12-07T17:12:46;6.22;;;1.70;;
58528;SDS011;44322;52.968;5.816;2022-12-07T17:15:12;4.55;;;1.60;;
58528;SDS011;44322;52.968;5.816;2022-12-07T17:17:56;5.05;;;2.15;;
58528;SDS011;44322;52.968;5.816;2022-12-07T17:20:25;4.50;;;2.60;;
58528;SDS011;44322;52.968;5.816;2022-12-07T17:22:51;8.93;;;3.50;;
58528;SDS011;44322;52.968;5.816;2022-12-07T17:25:18;5.45;;;2.03;;
58528;SDS011;44322;52.968;5.816;2022-12-07T17:27:44;7.53;;;2.20;;
58528;SDS011;44322;52.968;5.816;2022-12-07T17:30:10;6.25;;;2.05;;
58528;SDS011;44322;52.968;5.816;2022-12-07T17:32:37;5.63;;;1.83;;
58528;SDS011;44322;52.968;5.816;2022-12-07T17:35:03;5.07;;;2.60;;
58528;SDS011;44322;52.968;5.816;2022-12-07T17:37:29;3.50;;;1.63;;
58528;SDS011;44322;52.968;5.816;2022-12-07T17:39:56;5.32;;;2.15;;
58528;SDS011;44322;52.968;5.816;2022-12-07T17:42:23;5.80;;;1.88;;
58528;SDS011;44322;52.968;5.816;2022-12-07T17:45:05;7.03;;;3.25;;
58528;SDS011;44322;52.968;5.816;2022-12-07T17:47:32;10.15;;;3.67;;
58528;SDS011;44322;52.968;5.816;2022-12-07T17:49:58;6.35;;;3.35;;
58528;SDS011;44322;52.968;5.816;2022-12-07T17:52:23;8.02;;;2.28;;
58528;SDS011;44322;52.968;5.816;2022-12-07T17:55:08;7.82;;;2.00;;
58528;SDS011;44322;52.968;5.816;2022-12-07T17:57:33;5.03;;;1.70;;
58528;SDS011;44322;52.968;5.816;2022-12-07T17:59:59;4.75;;;1.70;;
58528;SDS011;44322;52.968;5.816;2022-12-07T18:02:25;2.25;;;1.80;;